Ridgecrest, California
Current Conditions -  °F | °C
As of 1:56 PM on Saturday 25 Oct 2014 (Local Time) from KNID Reporting Station
Clear Clear  
Wind Chill: 85°   Ceiling: Unl
Heat Index: 85°   Visibility: 10mi
Dew Point: 29°   Wind: 21mph
Humidity: 13%   Direction: 200°SSW
Pressure: 29.98"   Gusts: 31mph
Location:  35.62°N, 117.66°W
Report Text: KNID 252056Z AUTO 20018G27KT 10SM CLR 29/M02 A2998 RMK AO2 PK WND 19027/2026 SLP133 T02941017 58020 $
Loading
Personal Weather Stations






























Interactive Weather Map
Tropical Storm Tracking
New forecast layout! Learn more

10-Day Weather Forecast

Advertisements
Track Severe Weather on mobile